sensor_id;sensor_type;location;lat;lon;timestamp;pressure;altitude;pressure_sealevel;temperature;humidity
48424;BME280;34232;42.502;26.014;2023-01-31T00:01:26;99645.50;;;1.58;88.66
48424;BME280;34232;42.502;26.014;2023-01-31T00:03:54;99636.47;;;1.65;88.04
48424;BME280;34232;42.502;26.014;2023-01-31T00:06:28;99639.97;;;1.64;88.02
48424;BME280;34232;42.502;26.014;2023-01-31T00:08:55;99629.78;;;1.61;87.85
48424;BME280;34232;42.502;26.014;2023-01-31T00:11:23;99637.69;;;1.75;87.95
48424;BME280;34232;42.502;26.014;2023-01-31T00:13:50;99638.28;;;1.63;87.77
48424;BME280;34232;42.502;26.014;2023-01-31T00:16:17;99622.91;;;1.60;87.56
48424;BME280;34232;42.502;26.014;2023-01-31T00:18:43;99636.47;;;1.65;87.79
48424;BME280;34232;42.502;26.014;2023-01-31T00:21:23;99637.69;;;1.75;87.53
48424;BME280;34232;42.502;26.014;2023-01-31T00:23:50;99634.16;;;1.76;87.10
48424;BME280;34232;42.502;26.014;2023-01-31T00:28:46;99634.31;;;1.73;87.44
48424;BME280;34232;42.502;26.014;2023-01-31T00:31:13;99622.72;;;1.63;87.82
48424;BME280;34232;42.502;26.014;2023-01-31T00:33:42;99624.69;;;1.59;87.92
48424;BME280;34232;42.502;26.014;2023-01-31T00:36:11;99617.53;;;1.63;87.76
48424;BME280;34232;42.502;26.014;2023-01-31T00:38:37;99619.56;;;1.58;87.96
48424;BME280;34232;42.502;26.014;2023-01-31T00:41:03;99622.91;;;1.60;87.74
48424;BME280;34232;42.502;26.014;2023-01-31T00:43:30;99623.84;;;1.59;87.47
48424;BME280;34232;42.502;26.014;2023-01-31T00:45:56;99616.06;;;1.59;87.66
48424;BME280;34232;42.502;26.014;2023-01-31T00:48:21;99617.63;;;1.46;88.18
48424;BME280;34232;42.502;26.014;2023-01-31T00:50:47;99620.09;;;1.47;88.69
48424;BME280;34232;42.502;26.014;2023-01-31T00:53:13;99608.31;;;1.42;89.27
48424;BME280;34232;42.502;26.014;2023-01-31T00:55:38;99597.94;;;1.42;89.45
48424;BME280;34232;42.502;26.014;2023-01-31T00:58:04;99606.31;;;1.47;89.64
48424;BME280;34232;42.502;26.014;2023-01-31T01:00:29;99601.31;;;1.44;90.08
48424;BME280;34232;42.502;26.014;2023-01-31T01:02:55;99601.72;;;1.52;90.21
48424;BME280;34232;42.502;26.014;2023-01-31T01:05:20;99603.00;;;1.60;89.66
48424;BME280;34232;42.502;26.014;2023-01-31T01:07:45;99595.38;;;1.57;89.92
48424;BME280;34232;42.502;26.014;2023-01-31T01:10:11;99602.38;;;1.39;89.97
48424;BME280;34232;42.502;26.014;2023-01-31T01:12:37;99604.09;;;1.23;90.46
48424;BME280;34232;42.502;26.014;2023-01-31T01:15:03;99611.78;;;1.25;91.01
48424;BME280;34232;42.502;26.014;2023-01-31T01:17:29;99614.16;;;1.29;91.71
48424;BME280;34232;42.502;26.014;2023-01-31T01:19:54;99607.28;;;1.28;92.04
48424;BME280;34232;42.502;26.014;2023-01-31T01:22:20;99610.00;;;1.43;91.80
48424;BME280;34232;42.502;26.014;2023-01-31T01:24:45;99594.06;;;1.33;91.70
48424;BME280;34232;42.502;26.014;2023-01-31T01:27:11;99593.09;;;1.51;91.70
48424;BME280;34232;42.502;26.014;2023-01-31T01:29:38;99610.72;;;1.62;90.93
48424;BME280;34232;42.502;26.014;2023-01-31T01:32:05;99592.09;;;1.54;90.23
48424;BME280;34232;42.502;26.014;2023-01-31T01:34:31;99607.66;;;1.54;90.37
48424;BME280;34232;42.502;26.014;2023-01-31T01:36:56;99620.03;;;1.49;90.41
48424;BME280;34232;42.502;26.014;2023-01-31T01:39:22;99599.97;;;1.02;91.18
48424;BME280;34232;42.502;26.014;2023-01-31T01:41:48;99594.66;;;1.05;91.92
48424;BME280;34232;42.502;26.014;2023-01-31T01:44:45;99595.28;;;0.58;93.64
48424;BME280;34232;42.502;26.014;2023-01-31T01:52:39;99589.81;;;0.64;93.97
48424;BME280;34232;42.502;26.014;2023-01-31T01:55:33;99599.22;;;0.65;93.93
48424;BME280;34232;42.502;26.014;2023-01-31T01:58:05;99594.34;;;0.59;93.44
48424;BME280;34232;42.502;26.014;2023-01-31T02:00:32;99614.94;;;0.80;93.65
48424;BME280;34232;42.502;26.014;2023-01-31T02:03:03;99600.47;;;0.93;93.08
48424;BME280;34232;42.502;26.014;2023-01-31T02:05:44;99599.22;;;0.83;92.73
48424;BME280;34232;42.502;26.014;2023-01-31T02:08:13;99606.41;;;0.95;92.80
48424;BME280;34232;42.502;26.014;2023-01-31T02:10:56;99601.59;;;0.87;92.68
48424;BME280;34232;42.502;26.014;2023-01-31T02:13:23;99606.41;;;0.78;93.75
48424;BME280;34232;42.502;26.014;2023-01-31T02:15:49;99613.50;;;0.91;93.88
48424;BME280;34232;42.502;26.014;2023-01-31T02:18:16;99604.19;;;0.70;93.78
48424;BME280;34232;42.502;26.014;2023-01-31T02:29:04;99603.41;;;0.85;94.58
48424;BME280;34232;42.502;26.014;2023-01-31T02:36:57;99609.56;;;1.17;93.92
48424;BME280;34232;42.502;26.014;2023-01-31T02:42:04;99614.81;;;1.33;92.69
48424;BME280;34232;42.502;26.014;2023-01-31T02:44:40;99594.78;;;1.19;92.37
48424;BME280;34232;42.502;26.014;2023-01-31T02:47:40;99603.81;;;0.95;93.74
48424;BME280;34232;42.502;26.014;2023-01-31T02:50:40;99604.53;;;1.14;94.45
48424;BME280;34232;42.502;26.014;2023-01-31T02:53:15;99602.88;;;1.13;94.74
48424;BME280;34232;42.502;26.014;2023-01-31T02:58:38;99604.09;;;1.06;95.90
48424;BME280;34232;42.502;26.014;2023-01-31T03:01:05;99601.03;;;1.15;95.65
48424;BME280;34232;42.502;26.014;2023-01-31T03:03:34;99604.72;;;1.11;95.46
48424;BME280;34232;42.502;26.014;2023-01-31T03:09:01;99580.78;;;1.06;95.37
48424;BME280;34232;42.502;26.014;2023-01-31T03:11:51;99603.44;;;1.35;94.81
48424;BME280;34232;42.502;26.014;2023-01-31T03:14:26;99602.56;;;1.19;94.99
48424;BME280;34232;42.502;26.014;2023-01-31T03:17:05;99606.09;;;1.34;94.83
48424;BME280;34232;42.502;26.014;2023-01-31T03:22:24;99588.59;;;1.55;93.66
48424;BME280;34232;42.502;26.014;2023-01-31T03:24:52;99577.56;;;1.67;93.22
48424;BME280;34232;42.502;26.014;2023-01-31T03:27:18;99590.06;;;1.76;92.47
48424;BME280;34232;42.502;26.014;2023-01-31T03:29:46;99573.22;;;1.83;91.78
48424;BME280;34232;42.502;26.014;2023-01-31T03:32:26;99591.31;;;1.85;91.81
48424;BME280;34232;42.502;26.014;2023-01-31T03:34:53;99584.34;;;1.85;91.58
48424;BME280;34232;42.502;26.014;2023-01-31T03:37:40;99585.88;;;1.89;91.44
48424;BME280;34232;42.502;26.014;2023-01-31T03:42:58;99575.91;;;1.82;90.73
48424;BME280;34232;42.502;26.014;2023-01-31T03:45:32;99594.66;;;1.87;90.34
48424;BME280;34232;42.502;26.014;2023-01-31T03:48:01;99600.84;;;1.84;90.53
48424;BME280;34232;42.502;26.014;2023-01-31T03:50:52;99600.16;;;1.65;91.07
48424;BME280;34232;42.502;26.014;2023-01-31T03:53:40;99599.00;;;1.37;91.94
48424;BME280;34232;42.502;26.014;2023-01-31T03:58:52;99593.66;;;1.08;93.45
48424;BME280;34232;42.502;26.014;2023-01-31T04:01:22;99592.06;;;0.88;94.38
48424;BME280;34232;42.502;26.014;2023-01-31T04:03:56;99577.38;;;0.71;95.14
48424;BME280;34232;42.502;26.014;2023-01-31T04:06:23;99591.16;;;0.72;95.26
48424;BME280;34232;42.502;26.014;2023-01-31T04:08:49;99591.63;;;0.62;95.83
48424;BME280;34232;42.502;26.014;2023-01-31T04:11:19;99567.06;;;0.35;96.13
48424;BME280;34232;42.502;26.014;2023-01-31T04:13:45;99601.50;;;0.54;97.18
48424;BME280;34232;42.502;26.014;2023-01-31T04:16:25;99576.56;;;0.34;97.24
48424;BME280;34232;42.502;26.014;2023-01-31T04:18:51;99589.75;;;0.30;97.82
48424;BME280;34232;42.502;26.014;2023-01-31T04:21:16;99590.69;;;0.46;97.46
48424;BME280;34232;42.502;26.014;2023-01-31T04:23:42;99590.00;;;0.43;96.92
48424;BME280;34232;42.502;26.014;2023-01-31T04:26:07;99580.50;;;0.43;93.32
48424;BME280;34232;42.502;26.014;2023-01-31T04:28:32;99591.22;;;0.70;93.56
48424;BME280;34232;42.502;26.014;2023-01-31T04:30:58;99589.34;;;0.74;93.45
48424;BME280;34232;42.502;26.014;2023-01-31T04:33:23;99574.25;;;0.64;91.64
48424;BME280;34232;42.502;26.014;2023-01-31T04:35:52;99585.91;;;0.90;86.97
48424;BME280;34232;42.502;26.014;2023-01-31T04:38:17;99568.59;;;1.08;89.11
48424;BME280;34232;42.502;26.014;2023-01-31T04:40:43;99591.88;;;1.25;88.78
48424;BME280;34232;42.502;26.014;2023-01-31T04:43:08;99583.38;;;1.39;88.46
48424;BME280;34232;42.502;26.014;2023-01-31T04:45:33;99583.63;;;1.34;87.18
48424;BME280;34232;42.502;26.014;2023-01-31T04:47:59;99610.41;;;1.51;86.87
48424;BME280;34232;42.502;26.014;2023-01-31T04:50:24;99614.22;;;1.61;86.34
48424;BME280;34232;42.502;26.014;2023-01-31T04:52:50;99605.69;;;1.59;85.87
48424;BME280;34232;42.502;26.014;2023-01-31T04:55:17;99611.88;;;1.72;85.18
48424;BME280;34232;42.502;26.014;2023-01-31T04:57:42;99605.78;;;1.73;85.58
48424;BME280;34232;42.502;26.014;2023-01-31T05:00:09;99628.53;;;1.84;84.74
48424;BME280;34232;42.502;26.014;2023-01-31T05:02:34;99616.25;;;1.87;84.58
48424;BME280;34232;42.502;26.014;2023-01-31T05:05:01;99607.03;;;1.82;83.80
48424;BME280;34232;42.502;26.014;2023-01-31T05:07:27;99630.16;;;1.86;83.14
48424;BME280;34232;42.502;26.014;2023-01-31T05:09:52;99613.75;;;1.86;81.87
48424;BME280;34232;42.502;26.014;2023-01-31T05:12:18;99630.97;;;1.87;82.16
48424;BME280;34232;42.502;26.014;2023-01-31T05:14:43;99626.78;;;1.84;82.29
48424;BME280;34232;42.502;26.014;2023-01-31T05:17:08;99633.50;;;1.88;82.37
48424;BME280;34232;42.502;26.014;2023-01-31T05:19:34;99629.47;;;1.98;82.99
48424;BME280;34232;42.502;26.014;2023-01-31T05:21:59;99615.94;;;1.93;82.61
48424;BME280;34232;42.502;26.014;2023-01-31T05:24:27;99624.66;;;2.08;82.19
48424;BME280;34232;42.502;26.014;2023-01-31T05:26:54;99634.03;;;2.10;81.05
48424;BME280;34232;42.502;26.014;2023-01-31T05:29:24;99625.13;;;2.15;79.05
48424;BME280;34232;42.502;26.014;2023-01-31T05:31:54;99634.66;;;2.30;78.91
48424;BME280;34232;42.502;26.014;2023-01-31T05:34:20;99627.78;;;2.29;77.38
48424;BME280;34232;42.502;26.014;2023-01-31T05:36:46;99623.94;;;2.36;77.42
48424;BME280;34232;42.502;26.014;2023-01-31T05:39:11;99636.84;;;2.53;76.53
48424;BME280;34232;42.502;26.014;2023-01-31T05:41:37;99626.63;;;2.50;76.55
48424;BME280;34232;42.502;26.014;2023-01-31T05:44:02;99642.19;;;2.66;76.11
48424;BME280;34232;42.502;26.014;2023-01-31T05:46:28;99636.56;;;2.73;75.83
48424;BME280;34232;42.502;26.014;2023-01-31T05:48:53;99658.91;;;2.92;74.43
48424;BME280;34232;42.502;26.014;2023-01-31T05:51:18;99649.63;;;3.02;74.29
48424;BME280;34232;42.502;26.014;2023-01-31T05:53:44;99653.38;;;3.12;74.58
48424;BME280;34232;42.502;26.014;2023-01-31T05:56:09;99656.72;;;3.14;74.73
48424;BME280;34232;42.502;26.014;2023-01-31T05:58:35;99667.53;;;3.22;73.79
48424;BME280;34232;42.502;26.014;2023-01-31T06:01:00;99653.59;;;3.23;73.21
48424;BME280;34232;42.502;26.014;2023-01-31T06:03:25;99660.25;;;3.27;71.59
48424;BME280;34232;42.502;26.014;2023-01-31T06:05:52;99676.09;;;3.38;70.80
48424;BME280;34232;42.502;26.014;2023-01-31T06:08:17;99663.28;;;3.35;70.89
48424;BME280;34232;42.502;26.014;2023-01-31T06:10:42;99680.66;;;3.49;71.57
48424;BME280;34232;42.502;26.014;2023-01-31T06:13:08;99688.19;;;3.54;71.61
48424;BME280;34232;42.502;26.014;2023-01-31T06:15:33;99666.91;;;3.47;71.37
48424;BME280;34232;42.502;26.014;2023-01-31T06:17:59;99673.13;;;3.59;69.77
48424;BME280;34232;42.502;26.014;2023-01-31T06:20:25;99660.13;;;3.59;70.27
48424;BME280;34232;42.502;26.014;2023-01-31T06:22:51;99667.97;;;3.73;71.28
48424;BME280;34232;42.502;26.014;2023-01-31T06:25:16;99665.63;;;3.68;71.09
48424;BME280;34232;42.502;26.014;2023-01-31T06:27:42;99674.28;;;3.69;72.31
48424;BME280;34232;42.502;26.014;2023-01-31T06:30:08;99672.31;;;3.72;72.73
48424;BME280;34232;42.502;26.014;2023-01-31T06:32:35;99665.72;;;3.81;72.62
48424;BME280;34232;42.502;26.014;2023-01-31T06:35:00;99665.72;;;3.81;72.19
48424;BME280;34232;42.502;26.014;2023-01-31T06:37:25;99666.28;;;3.72;71.28
48424;BME280;34232;42.502;26.014;2023-01-31T06:39:51;99670.00;;;3.82;70.35
48424;BME280;34232;42.502;26.014;2023-01-31T06:42:16;99680.13;;;3.86;71.61
48424;BME280;34232;42.502;26.014;2023-01-31T06:44:42;99678.38;;;3.87;71.21
48424;BME280;34232;42.502;26.014;2023-01-31T06:47:07;99692.22;;;3.88;70.99
48424;BME280;34232;42.502;26.014;2023-01-31T06:49:32;99691.16;;;3.90;70.10
48424;BME280;34232;42.502;26.014;2023-01-31T06:51:58;99687.47;;;3.94;71.15
48424;BME280;34232;42.502;26.014;2023-01-31T06:54:23;99685.97;;;3.90;72.37
48424;BME280;34232;42.502;26.014;2023-01-31T06:56:49;99671.31;;;3.89;71.73
48424;BME280;34232;42.502;26.014;2023-01-31T06:59:14;99688.78;;;4.01;71.72
48424;BME280;34232;42.502;26.014;2023-01-31T07:01:39;99683.56;;;4.01;72.42
48424;BME280;34232;42.502;26.014;2023-01-31T07:04:05;99687.44;;;4.08;71.25
48424;BME280;34232;42.502;26.014;2023-01-31T07:06:30;99682.81;;;4.13;71.55
48424;BME280;34232;42.502;26.014;2023-01-31T07:08:56;99679.00;;;4.19;72.05
48424;BME280;34232;42.502;26.014;2023-01-31T07:11:21;99682.03;;;4.26;71.43
48424;BME280;34232;42.502;26.014;2023-01-31T07:13:46;99676.44;;;4.32;71.28
48424;BME280;34232;42.502;26.014;2023-01-31T07:16:13;99664.34;;;4.31;70.79
48424;BME280;34232;42.502;26.014;2023-01-31T07:18:40;99679.19;;;4.43;70.55
48424;BME280;34232;42.502;26.014;2023-01-31T07:21:06;99689.63;;;4.43;70.49
48424;BME280;34232;42.502;26.014;2023-01-31T07:23:31;99696.50;;;4.44;70.67
48424;BME280;34232;42.502;26.014;2023-01-31T07:25:57;99699.69;;;4.49;70.29
48424;BME280;34232;42.502;26.014;2023-01-31T07:28:22;99702.38;;;4.47;70.47
48424;BME280;34232;42.502;26.014;2023-01-31T07:30:47;99685.53;;;4.53;70.00
48424;BME280;34232;42.502;26.014;2023-01-31T07:33:13;99676.31;;;4.47;70.14
48424;BME280;34232;42.502;26.014;2023-01-31T07:35:41;99688.22;;;4.51;70.16
48424;BME280;34232;42.502;26.014;2023-01-31T07:38:06;99690.53;;;4.56;69.10
48424;BME280;34232;42.502;26.014;2023-01-31T07:40:32;99695.34;;;4.62;69.25
48424;BME280;34232;42.502;26.014;2023-01-31T07:42:58;99688.28;;;4.64;68.58
48424;BME280;34232;42.502;26.014;2023-01-31T07:45:24;99692.75;;;4.62;66.51
48424;BME280;34232;42.502;26.014;2023-01-31T07:47:50;99689.59;;;4.57;67.74
48424;BME280;34232;42.502;26.014;2023-01-31T07:50:16;99682.19;;;4.51;66.89
48424;BME280;34232;42.502;26.014;2023-01-31T07:52:42;99703.00;;;4.65;66.86
48424;BME280;34232;42.502;26.014;2023-01-31T07:55:08;99705.00;;;4.74;67.35
48424;BME280;34232;42.502;26.014;2023-01-31T07:57:33;99706.28;;;4.81;67.95
48424;BME280;34232;42.502;26.014;2023-01-31T07:59:58;99708.47;;;4.87;67.76
48424;BME280;34232;42.502;26.014;2023-01-31T08:02:25;99707.34;;;4.91;65.91
48424;BME280;34232;42.502;26.014;2023-01-31T08:05:09;99711.53;;;4.94;64.68
48424;BME280;34232;42.502;26.014;2023-01-31T08:07:35;99701.94;;;4.95;63.83
48424;BME280;34232;42.502;26.014;2023-01-31T08:10:01;99706.56;;;5.04;64.25
48424;BME280;34232;42.502;26.014;2023-01-31T08:12:26;99711.06;;;5.02;63.81
48424;BME280;34232;42.502;26.014;2023-01-31T08:14:51;99718.66;;;5.05;64.93
48424;BME280;34232;42.502;26.014;2023-01-31T08:17:17;99719.91;;;4.99;64.28
48424;BME280;34232;42.502;26.014;2023-01-31T08:19:42;99741.41;;;5.03;66.13
48424;BME280;34232;42.502;26.014;2023-01-31T08:22:08;99734.69;;;4.86;68.24
48424;BME280;34232;42.502;26.014;2023-01-31T08:24:33;99731.81;;;4.76;68.74
48424;BME280;34232;42.502;26.014;2023-01-31T08:26:59;99741.56;;;4.46;70.35
48424;BME280;34232;42.502;26.014;2023-01-31T08:29:25;99747.91;;;4.28;71.21
48424;BME280;34232;42.502;26.014;2023-01-31T08:31:51;99741.03;;;4.27;71.56
48424;BME280;34232;42.502;26.014;2023-01-31T08:34:17;99745.13;;;4.16;72.47
48424;BME280;34232;42.502;26.014;2023-01-31T08:36:44;99748.00;;;4.12;72.97
48424;BME280;34232;42.502;26.014;2023-01-31T08:39:10;99755.72;;;4.13;73.59
48424;BME280;34232;42.502;26.014;2023-01-31T08:41:36;99759.16;;;4.14;73.74
48424;BME280;34232;42.502;26.014;2023-01-31T08:44:03;99769.94;;;3.94;74.19
48424;BME280;34232;42.502;26.014;2023-01-31T08:46:33;99760.75;;;3.88;75.32
48424;BME280;34232;42.502;26.014;2023-01-31T08:49:00;99763.88;;;3.79;75.99
48424;BME280;34232;42.502;26.014;2023-01-31T08:51:26;99778.78;;;3.47;78.22
48424;BME280;34232;42.502;26.014;2023-01-31T08:53:52;99788.50;;;3.43;79.72
48424;BME280;34232;42.502;26.014;2023-01-31T08:56:18;99788.56;;;3.58;79.52
48424;BME280;34232;42.502;26.014;2023-01-31T08:58:48;99785.03;;;3.59;79.41
48424;BME280;34232;42.502;26.014;2023-01-31T09:01:16;99783.41;;;3.42;80.01
48424;BME280;34232;42.502;26.014;2023-01-31T09:03:42;99782.72;;;3.24;80.24
48424;BME280;34232;42.502;26.014;2023-01-31T09:06:13;99789.50;;;3.11;81.93
48424;BME280;34232;42.502;26.014;2023-01-31T09:08:38;99792.69;;;3.16;82.65
48424;BME280;34232;42.502;26.014;2023-01-31T09:11:04;99782.31;;;3.00;82.02
48424;BME280;34232;42.502;26.014;2023-01-31T09:13:30;99795.38;;;2.99;80.88
48424;BME280;34232;42.502;26.014;2023-01-31T09:16:08;99797.72;;;3.19;80.19
48424;BME280;34232;42.502;26.014;2023-01-31T09:18:36;99799.03;;;3.26;80.16
48424;BME280;34232;42.502;26.014;2023-01-31T09:21:06;99787.63;;;3.29;79.60
48424;BME280;34232;42.502;26.014;2023-01-31T09:23:32;99791.03;;;3.45;79.67
48424;BME280;34232;42.502;26.014;2023-01-31T09:25:57;99788.38;;;3.61;79.13
48424;BME280;34232;42.502;26.014;2023-01-31T09:28:24;99790.66;;;3.81;77.73
48424;BME280;34232;42.502;26.014;2023-01-31T09:30:50;99786.59;;;3.91;77.32
48424;BME280;34232;42.502;26.014;2023-01-31T09:33:18;99789.75;;;3.96;76.74
48424;BME280;34232;42.502;26.014;2023-01-31T09:35:54;99785.66;;;4.06;72.58
48424;BME280;34232;42.502;26.014;2023-01-31T09:38:20;99778.59;;;4.22;70.90
48424;BME280;34232;42.502;26.014;2023-01-31T09:40:46;99770.25;;;4.32;70.70
48424;BME280;34232;42.502;26.014;2023-01-31T09:43:12;99779.72;;;4.47;70.87
48424;BME280;34232;42.502;26.014;2023-01-31T09:45:39;99768.72;;;4.56;70.74
48424;BME280;34232;42.502;26.014;2023-01-31T09:48:14;99769.66;;;4.69;69.46
48424;BME280;34232;42.502;26.014;2023-01-31T09:50:46;99753.59;;;4.75;69.55
48424;BME280;34232;42.502;26.014;2023-01-31T09:53:17;99760.44;;;4.90;68.89
48424;BME280;34232;42.502;26.014;2023-01-31T09:56:19;99757.34;;;4.98;69.21
48424;BME280;34232;42.502;26.014;2023-01-31T10:01:54;99754.78;;;5.11;68.25
48424;BME280;34232;42.502;26.014;2023-01-31T10:07:25;99756.59;;;5.23;68.65
48424;BME280;34232;42.502;26.014;2023-01-31T10:12:52;99736.25;;;5.28;65.89
48424;BME280;34232;42.502;26.014;2023-01-31T10:15:29;99747.53;;;5.28;66.49
48424;BME280;34232;42.502;26.014;2023-01-31T10:18:17;99740.88;;;5.37;64.62
48424;BME280;34232;42.502;26.014;2023-01-31T10:23:49;99733.28;;;5.34;64.38
48424;BME280;34232;42.502;26.014;2023-01-31T10:26:26;99738.06;;;5.40;66.90
48424;BME280;34232;42.502;26.014;2023-01-31T10:36:33;99729.59;;;5.37;68.07
48424;BME280;34232;42.502;26.014;2023-01-31T10:42:01;99719.59;;;5.56;66.67
48424;BME280;34232;42.502;26.014;2023-01-31T10:47:16;99708.34;;;5.81;66.33
48424;BME280;34232;42.502;26.014;2023-01-31T10:49:45;99696.63;;;6.24;66.04
48424;BME280;34232;42.502;26.014;2023-01-31T10:55:17;99690.06;;;7.03;60.56
48424;BME280;34232;42.502;26.014;2023-01-31T10:57:48;99691.84;;;7.49;61.04
48424;BME280;34232;42.502;26.014;2023-01-31T11:00:22;99692.97;;;7.80;59.98
48424;BME280;34232;42.502;26.014;2023-01-31T11:02:50;99691.59;;;8.09;57.97
48424;BME280;34232;42.502;26.014;2023-01-31T11:05:20;99693.97;;;8.23;58.53
48424;BME280;34232;42.502;26.014;2023-01-31T11:07:46;99695.88;;;8.44;57.61
48424;BME280;34232;42.502;26.014;2023-01-31T11:10:31;99698.03;;;8.38;55.15
48424;BME280;34232;42.502;26.014;2023-01-31T11:13:03;99698.38;;;8.23;55.64
48424;BME280;34232;42.502;26.014;2023-01-31T11:15:37;99698.38;;;8.12;55.48
48424;BME280;34232;42.502;26.014;2023-01-31T11:18:04;99702.75;;;7.89;56.39
48424;BME280;34232;42.502;26.014;2023-01-31T11:20:32;99710.13;;;7.72;57.47
48424;BME280;34232;42.502;26.014;2023-01-31T11:23:00;99701.28;;;7.51;56.17
48424;BME280;34232;42.502;26.014;2023-01-31T11:25:28;99698.94;;;7.24;57.38
48424;BME280;34232;42.502;26.014;2023-01-31T11:28:04;99706.69;;;7.26;57.15
48424;BME280;34232;42.502;26.014;2023-01-31T11:30:46;99701.84;;;7.09;59.29
48424;BME280;34232;42.502;26.014;2023-01-31T11:33:36;99696.88;;;7.17;57.65
48424;BME280;34232;42.502;26.014;2023-01-31T11:36:22;99693.41;;;7.40;59.07
48424;BME280;34232;42.502;26.014;2023-01-31T11:38:52;99684.59;;;7.52;58.92
48424;BME280;34232;42.502;26.014;2023-01-31T11:41:35;99682.97;;;7.62;57.15
48424;BME280;34232;42.502;26.014;2023-01-31T11:44:25;99694.78;;;7.79;56.75
48424;BME280;34232;42.502;26.014;2023-01-31T11:46:56;99679.41;;;7.75;56.07
48424;BME280;34232;42.502;26.014;2023-01-31T11:51:54;99684.38;;;7.66;56.15
48424;BME280;34232;42.502;26.014;2023-01-31T11:54:24;99687.22;;;7.63;56.89
48424;BME280;34232;42.502;26.014;2023-01-31T11:56:51;99687.50;;;7.71;56.54
48424;BME280;34232;42.502;26.014;2023-01-31T11:59:22;99677.75;;;7.85;57.05
48424;BME280;34232;42.502;26.014;2023-01-31T12:01:54;99677.63;;;7.97;56.59
48424;BME280;34232;42.502;26.014;2023-01-31T12:04:25;99681.22;;;8.07;55.66
48424;BME280;34232;42.502;26.014;2023-01-31T12:07:00;99684.44;;;8.11;55.46
48424;BME280;34232;42.502;26.014;2023-01-31T12:09:29;99680.47;;;8.17;55.73
48424;BME280;34232;42.502;26.014;2023-01-31T12:12:00;99683.47;;;8.23;55.39
48424;BME280;34232;42.502;26.014;2023-01-31T12:14:38;99680.13;;;8.21;53.54
48424;BME280;34232;42.502;26.014;2023-01-31T12:17:05;99687.63;;;8.03;54.19
48424;BME280;34232;42.502;26.014;2023-01-31T12:19:55;99675.84;;;7.98;56.06
48424;BME280;34232;42.502;26.014;2023-01-31T12:22:35;99696.34;;;8.04;56.19
48424;BME280;34232;42.502;26.014;2023-01-31T12:25:24;99681.09;;;7.87;56.12
48424;BME280;34232;42.502;26.014;2023-01-31T12:31:14;99693.19;;;7.65;55.78
48424;BME280;34232;42.502;26.014;2023-01-31T12:33:51;99690.78;;;7.51;56.89
48424;BME280;34232;42.502;26.014;2023-01-31T12:36:46;99706.72;;;7.48;56.39
48424;BME280;34232;42.502;26.014;2023-01-31T12:44:46;99709.50;;;7.12;55.99
48424;BME280;34232;42.502;26.014;2023-01-31T12:52:48;99712.28;;;6.74;57.18
48424;BME280;34232;42.502;26.014;2023-01-31T13:06:12;99708.13;;;6.82;59.14
48424;BME280;34232;42.502;26.014;2023-01-31T13:08:51;99706.72;;;6.78;59.46
48424;BME280;34232;42.502;26.014;2023-01-31T13:11:18;99699.81;;;6.77;58.57
48424;BME280;34232;42.502;26.014;2023-01-31T13:14:05;99701.69;;;6.75;58.44
48424;BME280;34232;42.502;26.014;2023-01-31T13:16:41;99708.59;;;6.76;59.40
48424;BME280;34232;42.502;26.014;2023-01-31T13:19:19;99701.50;;;6.78;58.81
48424;BME280;34232;42.502;26.014;2023-01-31T13:21:51;99714.78;;;6.75;58.86
48424;BME280;34232;42.502;26.014;2023-01-31T13:24:20;99706.25;;;6.84;58.90
48424;BME280;34232;42.502;26.014;2023-01-31T13:27:14;99701.03;;;6.84;58.26
48424;BME280;34232;42.502;26.014;2023-01-31T13:32:41;99696.34;;;7.00;57.61
48424;BME280;34232;42.502;26.014;2023-01-31T13:37:55;99700.69;;;7.13;58.03
48424;BME280;34232;42.502;26.014;2023-01-31T13:40:27;99708.03;;;7.08;57.53
48424;BME280;34232;42.502;26.014;2023-01-31T13:42:54;99715.38;;;7.02;57.66
48424;BME280;34232;42.502;26.014;2023-01-31T13:45:32;99706.81;;;7.00;58.15
48424;BME280;34232;42.502;26.014;2023-01-31T13:48:06;99715.59;;;6.99;57.76
48424;BME280;34232;42.502;26.014;2023-01-31T13:50:39;99721.31;;;6.93;57.08
48424;BME280;34232;42.502;26.014;2023-01-31T13:53:13;99715.84;;;6.96;56.94
48424;BME280;34232;42.502;26.014;2023-01-31T13:55:46;99721.31;;;6.93;56.26
48424;BME280;34232;42.502;26.014;2023-01-31T13:58:24;99732.72;;;6.92;57.65
48424;BME280;34232;42.502;26.014;2023-01-31T14:00:58;99733.34;;;6.83;57.40
48424;BME280;34232;42.502;26.014;2023-01-31T14:03:26;99735.38;;;6.80;57.96
48424;BME280;34232;42.502;26.014;2023-01-31T14:05:55;99735.66;;;6.64;60.14
48424;BME280;34232;42.502;26.014;2023-01-31T14:13:44;99749.00;;;6.10;71.50
48424;BME280;34232;42.502;26.014;2023-01-31T14:16:33;99756.66;;;6.13;72.65
48424;BME280;34232;42.502;26.014;2023-01-31T14:19:00;99756.13;;;6.08;73.49
48424;BME280;34232;42.502;26.014;2023-01-31T14:23:58;99753.09;;;5.89;72.28
48424;BME280;34232;42.502;26.014;2023-01-31T14:29:07;99755.97;;;5.72;73.84
48424;BME280;34232;42.502;26.014;2023-01-31T14:31:32;99757.63;;;5.73;74.52
48424;BME280;34232;42.502;26.014;2023-01-31T14:33:58;99766.22;;;5.75;75.06
48424;BME280;34232;42.502;26.014;2023-01-31T14:39:35;99791.75;;;5.57;77.18
48424;BME280;34232;42.502;26.014;2023-01-31T14:50:38;99803.41;;;4.85;86.23
48424;BME280;34232;42.502;26.014;2023-01-31T14:59:01;99820.66;;;4.59;88.36
48424;BME280;34232;42.502;26.014;2023-01-31T15:01:34;99826.53;;;4.63;88.62
48424;BME280;34232;42.502;26.014;2023-01-31T15:04:00;99832.22;;;4.69;88.16
48424;BME280;34232;42.502;26.014;2023-01-31T15:06:37;99831.63;;;4.78;88.50
48424;BME280;34232;42.502;26.014;2023-01-31T15:11:51;99823.22;;;4.87;87.36
48424;BME280;34232;42.502;26.014;2023-01-31T15:17:09;99835.69;;;4.97;85.91
48424;BME280;34232;42.502;26.014;2023-01-31T15:19:59;99841.91;;;5.08;86.68
48424;BME280;34232;42.502;26.014;2023-01-31T15:22:29;99847.41;;;5.04;87.68
48424;BME280;34232;42.502;26.014;2023-01-31T15:24:56;99837.34;;;5.12;87.88
48424;BME280;34232;42.502;26.014;2023-01-31T15:27:30;99842.00;;;5.07;87.73